createdAt,value
2022-12-12T00:00:46.942Z,37.03
2022-12-12T00:03:14.841Z,40.60
2022-12-12T00:05:43.404Z,37.73
2022-12-12T00:08:12.695Z,36.07
2022-12-12T00:10:40.907Z,36.37
2022-12-12T00:13:09.001Z,41.90
2022-12-12T00:15:37.127Z,35.43
2022-12-12T00:18:05.100Z,40.83
2022-12-12T00:20:33.121Z,44.20
2022-12-12T00:23:00.959Z,39.13
2022-12-12T00:25:30.223Z,41.10
2022-12-12T00:27:58.085Z,35.27
2022-12-12T00:30:26.132Z,45.43
2022-12-12T00:32:54.121Z,40.57
2022-12-12T00:35:22.054Z,40.00
2022-12-12T00:37:49.972Z,41.83
2022-12-12T00:40:19.166Z,40.30
2022-12-12T00:42:48.335Z,40.50
2022-12-12T00:45:16.239Z,41.53
2022-12-12T00:47:44.226Z,38.47
2022-12-12T00:50:12.107Z,46.97
2022-12-12T00:52:40.003Z,42.70
2022-12-12T00:55:08.889Z,44.47
2022-12-12T00:57:36.971Z,43.60
2022-12-12T01:00:07.748Z,35.83
2022-12-12T01:02:36.129Z,34.13
2022-12-12T01:05:04.201Z,41.00
2022-12-12T01:07:32.257Z,44.83
2022-12-12T01:10:00.169Z,39.50
2022-12-12T01:12:28.126Z,40.40
2022-12-12T01:14:55.977Z,40.60
2022-12-12T01:17:25.485Z,43.77
2022-12-12T01:19:53.578Z,40.90
2022-12-12T01:22:21.429Z,41.50
2022-12-12T01:24:49.236Z,34.97
2022-12-12T01:27:17.070Z,40.73
2022-12-12T01:29:44.857Z,33.80
2022-12-12T01:32:12.729Z,41.43
2022-12-12T01:34:41.941Z,40.37
2022-12-12T01:37:09.794Z,37.87
2022-12-12T01:39:37.633Z,40.10
2022-12-12T01:42:05.582Z,40.30
2022-12-12T01:44:43.185Z,38.33
2022-12-12T01:47:11.042Z,34.00
2022-12-12T01:49:38.905Z,41.43
2022-12-12T01:52:12.405Z,38.83
2022-12-12T01:54:43.730Z,33.13
2022-12-12T01:57:14.738Z,41.67
2022-12-12T01:59:43.927Z,39.70
2022-12-12T02:02:11.949Z,35.37
2022-12-12T02:04:40.854Z,42.97
2022-12-12T02:07:10.373Z,41.70
2022-12-12T02:09:39.002Z,36.30
2022-12-12T02:12:07.433Z,45.30
2022-12-12T02:14:39.857Z,43.73
2022-12-12T02:17:40.976Z,52.77
2022-12-12T02:20:45.763Z,42.03
2022-12-12T02:23:41.265Z,43.70
2022-12-12T02:26:37.735Z,40.87
2022-12-12T02:29:41.471Z,40.13
2022-12-12T02:32:18.003Z,46.90
2022-12-12T02:34:53.669Z,51.83
2022-12-12T02:37:28.916Z,47.20
2022-12-12T02:40:02.852Z,47.00
2022-12-12T02:42:41.157Z,50.57
2022-12-12T02:45:17.654Z,46.10
2022-12-12T02:47:52.993Z,46.60
2022-12-12T02:50:25.903Z,44.57
2022-12-12T02:52:53.755Z,42.83
2022-12-12T02:55:22.033Z,47.57
2022-12-12T02:57:51.322Z,41.13
2022-12-12T03:00:21.605Z,47.70
2022-12-12T03:03:46.948Z,43.43
2022-12-12T03:06:50.063Z,38.80
2022-12-12T03:09:28.984Z,46.33
2022-12-12T03:12:04.933Z,41.43
2022-12-12T03:14:48.177Z,38.07
2022-12-12T03:17:23.439Z,43.47
2022-12-12T03:20:01.253Z,42.40
2022-12-12T03:22:35.931Z,38.07
2022-12-12T03:25:09.238Z,47.87
2022-12-12T03:27:42.294Z,46.83
2022-12-12T03:30:13.437Z,44.23
2022-12-12T03:32:46.732Z,45.37
2022-12-12T03:35:20.995Z,45.67
2022-12-12T03:37:52.968Z,42.27
2022-12-12T03:40:26.128Z,42.50
2022-12-12T03:43:01.089Z,45.97
2022-12-12T03:45:35.411Z,46.87
2022-12-12T03:48:10.585Z,44.43
2022-12-12T03:50:45.531Z,45.17
2022-12-12T03:53:18.938Z,38.20
2022-12-12T03:55:50.368Z,42.00
2022-12-12T03:58:25.053Z,45.10
2022-12-12T04:00:57.717Z,45.07
2022-12-12T04:03:31.156Z,41.33
2022-12-12T04:06:22.289Z,41.97
2022-12-12T04:09:07.603Z,40.83
2022-12-12T04:11:59.058Z,38.90
2022-12-12T04:14:43.274Z,40.00
2022-12-12T04:17:15.728Z,36.30
2022-12-12T04:20:10.099Z,48.07
2022-12-12T04:23:03.737Z,47.73
2022-12-12T04:25:57.349Z,48.67
2022-12-12T04:28:28.810Z,56.60
2022-12-12T04:31:03.079Z,49.77
2022-12-12T04:33:39.531Z,57.50
2022-12-12T04:36:11.030Z,51.90
2022-12-12T04:38:42.709Z,50.70
2022-12-12T04:41:14.416Z,52.27
2022-12-12T04:43:47.740Z,56.40
2022-12-12T04:46:19.207Z,50.27
2022-12-12T04:48:53.680Z,49.47
2022-12-12T04:51:26.540Z,47.80
2022-12-12T04:54:01.482Z,51.03
2022-12-12T04:56:33.008Z,52.80
2022-12-12T04:59:01.006Z,50.57
2022-12-12T05:01:38.594Z,51.97
2022-12-12T05:04:12.750Z,53.73
2022-12-12T05:06:44.678Z,50.20
2022-12-12T05:09:16.733Z,57.90
2022-12-12T05:11:44.868Z,60.20
2022-12-12T05:14:15.500Z,57.80
2022-12-12T05:16:47.730Z,51.97
2022-12-12T05:19:16.046Z,52.37
2022-12-12T05:21:44.112Z,55.10
2022-12-12T05:24:13.377Z,51.53
2022-12-12T05:26:41.293Z,45.97
2022-12-12T05:29:09.144Z,56.57
2022-12-12T05:31:37.331Z,44.33
2022-12-12T05:34:05.960Z,53.17
2022-12-12T05:36:33.813Z,61.57
2022-12-12T05:39:01.709Z,58.83
2022-12-12T05:41:30.920Z,58.87
2022-12-12T05:43:58.743Z,53.63
2022-12-12T05:46:26.855Z,57.77
2022-12-12T05:48:54.733Z,60.00
2022-12-12T05:51:22.697Z,59.47
2022-12-12T05:53:50.577Z,57.90
2022-12-12T05:56:18.470Z,61.60
2022-12-12T05:58:47.672Z,53.80
2022-12-12T06:01:15.765Z,59.47
2022-12-12T06:03:43.784Z,53.80
2022-12-12T06:06:11.674Z,68.17
2022-12-12T06:08:39.688Z,60.97
2022-12-12T06:11:08.334Z,57.33
2022-12-12T06:13:36.597Z,52.90
2022-12-12T06:16:08.960Z,61.43
2022-12-12T06:18:37.544Z,59.03
2022-12-12T06:21:08.503Z,65.23
2022-12-12T06:23:37.500Z,58.07
2022-12-12T06:26:06.338Z,65.73
2022-12-12T06:28:34.477Z,62.43
2022-12-12T06:31:04.516Z,59.80
2022-12-12T06:33:36.298Z,63.10
2022-12-12T06:36:07.312Z,64.67
2022-12-12T06:38:36.202Z,60.33
2022-12-12T06:41:07.680Z,54.33
2022-12-12T06:43:35.909Z,59.57
2022-12-12T06:46:04.479Z,66.33
2022-12-12T06:48:33.607Z,78.07
2022-12-12T06:51:07.197Z,63.87
2022-12-12T06:53:35.123Z,52.00
2022-12-12T06:56:07.072Z,62.00
2022-12-12T06:58:35.478Z,59.30
2022-12-12T07:01:03.486Z,59.83
2022-12-12T07:03:31.357Z,64.77
2022-12-12T07:05:59.465Z,60.70
2022-12-12T07:08:29.358Z,56.23
2022-12-12T07:10:57.635Z,55.63
2022-12-12T07:13:25.501Z,62.63
2022-12-12T07:15:56.995Z,60.90
2022-12-12T07:18:24.925Z,54.17
2022-12-12T07:20:53.032Z,59.77
2022-12-12T07:23:21.160Z,62.97
2022-12-12T07:25:50.724Z,67.47
2022-12-12T07:28:18.982Z,62.47
2022-12-12T07:30:48.532Z,56.20
2022-12-12T07:33:17.947Z,57.13
2022-12-12T07:35:45.993Z,61.53
2022-12-12T07:38:13.886Z,61.33
2022-12-12T07:40:41.741Z,57.47
2022-12-12T07:43:10.957Z,56.80
2022-12-12T07:45:38.917Z,59.57
2022-12-12T07:48:07.084Z,66.10
2022-12-12T07:50:35.058Z,59.30
2022-12-12T07:53:03.004Z,55.63
2022-12-12T07:55:30.889Z,58.90
2022-12-12T07:57:59.139Z,53.70
2022-12-12T08:00:28.475Z,61.63
2022-12-12T08:02:56.314Z,69.97
2022-12-12T08:05:24.340Z,65.33
2022-12-12T08:07:52.787Z,64.87
2022-12-12T08:10:21.164Z,63.97
2022-12-12T08:12:49.047Z,59.67
2022-12-12T08:15:18.656Z,66.43
2022-12-12T08:17:48.965Z,69.30
2022-12-12T08:20:18.393Z,74.27
2022-12-12T08:22:46.326Z,71.33
2022-12-12T08:25:14.497Z,59.93
2022-12-12T08:27:42.719Z,66.07
2022-12-12T08:30:14.282Z,66.63
2022-12-12T08:32:42.213Z,70.53
2022-12-12T08:35:12.227Z,68.67
2022-12-12T08:37:40.234Z,65.88
2022-12-12T08:40:09.192Z,60.80
2022-12-12T08:42:37.109Z,66.30
2022-12-12T08:45:06.176Z,61.03
2022-12-12T08:47:34.109Z,65.60
2022-12-12T08:50:02.078Z,49.67
2022-12-12T08:52:31.306Z,60.05
2022-12-12T08:54:59.186Z,67.15
2022-12-12T08:57:27.138Z,53.35
2022-12-12T08:59:55.005Z,68.38
2022-12-12T09:02:23.510Z,58.07
2022-12-12T09:04:51.549Z,56.35
2022-12-12T09:07:19.487Z,62.40
2022-12-12T09:09:48.791Z,52.38
2022-12-12T09:12:16.734Z,57.83
2022-12-12T09:14:44.763Z,57.47
2022-12-12T09:17:12.675Z,59.03
2022-12-12T09:19:40.577Z,63.75
2022-12-12T09:22:08.536Z,59.27
2022-12-12T09:24:36.450Z,57.73
2022-12-12T09:27:05.776Z,54.97
2022-12-12T09:29:33.765Z,51.88
2022-12-12T09:32:06.476Z,54.13
2022-12-12T09:34:34.458Z,56.90
2022-12-12T09:37:02.768Z,59.85
2022-12-12T09:39:31.026Z,50.03
2022-12-12T09:41:59.335Z,43.95
2022-12-12T09:44:28.753Z,52.20
2022-12-12T09:47:00.514Z,48.08
2022-12-12T09:49:41.513Z,52.40
2022-12-12T09:52:14.725Z,48.40
2022-12-12T09:54:42.709Z,46.80
2022-12-12T09:57:24.771Z,51.40
2022-12-12T09:59:59.301Z,50.40
2022-12-12T10:02:47.567Z,49.67
2022-12-12T10:05:26.841Z,43.08
2022-12-12T10:08:01.910Z,47.65
2022-12-12T10:10:34.269Z,49.63
2022-12-12T10:13:05.512Z,47.58
2022-12-12T10:15:38.867Z,47.92
2022-12-12T10:18:11.269Z,38.38
2022-12-12T10:20:46.631Z,43.97
2022-12-12T10:23:20.804Z,37.17
2022-12-12T10:25:53.213Z,40.35
2022-12-12T10:28:24.513Z,36.58
2022-12-12T10:31:04.252Z,40.92
2022-12-12T10:33:42.920Z,35.28
2022-12-12T10:36:18.366Z,33.53
2022-12-12T10:39:04.418Z,34.88
2022-12-12T10:41:41.769Z,35.92
2022-12-12T10:44:21.110Z,37.53
2022-12-12T10:46:58.026Z,34.67
2022-12-12T10:49:26.308Z,34.92
2022-12-12T10:51:56.821Z,36.80
2022-12-12T10:54:28.037Z,36.40
2022-12-12T10:57:18.224Z,35.90
2022-12-12T10:59:50.125Z,32.33
2022-12-12T11:02:37.390Z,33.70
2022-12-12T11:05:15.791Z,39.22
2022-12-12T11:07:46.620Z,32.28
2022-12-12T11:10:26.747Z,33.08
2022-12-12T11:13:00.214Z,35.28
2022-12-12T11:15:38.673Z,29.92
2022-12-12T11:18:14.114Z,31.80
2022-12-12T11:20:46.395Z,34.17
2022-12-12T11:23:20.234Z,32.47
2022-12-12T11:25:56.304Z,35.55
2022-12-12T11:28:26.507Z,35.65
2022-12-12T11:30:57.057Z,32.35
2022-12-12T11:33:32.467Z,29.77
2022-12-12T11:36:01.906Z,29.85
2022-12-12T11:38:33.713Z,37.70
2022-12-12T11:41:04.254Z,31.25
2022-12-12T11:43:33.376Z,27.10
2022-12-12T11:46:05.279Z,24.60
2022-12-12T11:48:39.386Z,31.77
2022-12-12T11:51:07.616Z,35.28
2022-12-12T11:53:39.251Z,32.17
2022-12-12T11:56:36.413Z,32.17
2022-12-12T11:59:18.826Z,30.00
2022-12-12T12:01:56.974Z,28.88
2022-12-12T12:04:52.723Z,27.75
2022-12-12T12:07:43.529Z,29.90
2022-12-12T12:10:24.086Z,29.67
2022-12-12T12:13:07.132Z,25.73
2022-12-12T12:15:41.098Z,26.25
2022-12-12T12:18:31.383Z,26.73
2022-12-12T12:21:23.049Z,25.35
2022-12-12T12:24:10.014Z,22.65
2022-12-12T12:26:45.244Z,22.33
2022-12-12T12:29:33.351Z,23.30
2022-12-12T12:32:12.124Z,23.05
2022-12-12T12:34:53.079Z,26.00
2022-12-12T12:37:38.641Z,25.50
2022-12-12T12:40:19.939Z,26.92
2022-12-12T12:43:00.197Z,20.58
2022-12-12T12:45:38.830Z,24.70
2022-12-12T12:48:15.935Z,21.60
2022-12-12T12:50:48.610Z,20.58
2022-12-12T12:53:27.903Z,25.42
2022-12-12T12:56:00.153Z,21.65
2022-12-12T12:58:33.888Z,23.92
2022-12-12T13:01:06.528Z,23.48
2022-12-12T13:03:41.799Z,24.48
2022-12-12T13:06:15.482Z,24.30
2022-12-12T13:08:52.080Z,21.35
2022-12-12T13:11:24.583Z,25.23
2022-12-12T13:13:56.190Z,26.58
2022-12-12T13:16:27.772Z,25.98
2022-12-12T13:19:04.945Z,27.80
2022-12-12T13:21:40.342Z,24.90
2022-12-12T13:24:18.159Z,23.55
2022-12-12T13:26:52.778Z,24.30
2022-12-12T13:29:35.152Z,23.95
2022-12-12T13:32:37.018Z,27.65
2022-12-12T13:35:09.095Z,31.60
2022-12-12T13:37:45.895Z,35.20
2022-12-12T13:40:28.000Z,33.55
2022-12-12T13:43:01.592Z,35.88
2022-12-12T13:45:45.687Z,37.53
2022-12-12T13:48:48.270Z,37.95
2022-12-12T13:51:40.824Z,41.38
2022-12-12T13:54:44.133Z,37.60
2022-12-12T13:57:15.601Z,35.10
2022-12-12T14:00:09.057Z,36.75
2022-12-12T14:02:40.226Z,35.97
2022-12-12T14:05:11.454Z,31.00
2022-12-12T14:07:40.308Z,33.28
2022-12-12T14:10:25.133Z,32.85
2022-12-12T14:12:54.821Z,33.67
2022-12-12T14:15:29.066Z,34.60
2022-12-12T14:18:00.044Z,35.78
2022-12-12T14:20:32.507Z,37.38
2022-12-12T14:23:30.430Z,35.55
2022-12-12T14:26:00.044Z,40.72
2022-12-12T14:28:30.975Z,38.15
2022-12-12T14:31:10.942Z,37.35
2022-12-12T14:33:55.152Z,38.92
2022-12-12T14:37:16.753Z,39.53
2022-12-12T14:39:58.070Z,39.97
2022-12-12T14:43:18.725Z,43.10
2022-12-12T14:45:34.987Z,46.85
2022-12-12T14:48:24.757Z,42.35
2022-12-12T14:50:57.450Z,42.33
2022-12-12T14:53:28.279Z,47.58
2022-12-12T14:55:59.855Z,47.40
2022-12-12T14:58:30.277Z,49.23
2022-12-12T15:01:01.652Z,52.90
2022-12-12T15:03:36.269Z,51.87
2022-12-12T15:06:29.434Z,50.83
2022-12-12T15:08:59.588Z,50.43
2022-12-12T15:11:31.680Z,50.83
2022-12-12T15:14:01.278Z,47.97
2022-12-12T15:16:37.361Z,53.00
2022-12-12T15:19:05.630Z,52.80
2022-12-12T15:21:34.163Z,57.10
2022-12-12T15:24:02.199Z,54.70
2022-12-12T15:26:30.970Z,47.77
2022-12-12T15:28:59.321Z,50.10
2022-12-12T15:31:27.341Z,58.50
2022-12-12T15:33:56.615Z,51.53
2022-12-12T15:36:29.473Z,61.40
2022-12-12T15:39:10.449Z,58.03
2022-12-12T15:41:38.404Z,51.43
2022-12-12T15:44:06.890Z,55.30
2022-12-12T15:46:34.901Z,53.20
2022-12-12T15:49:04.177Z,58.83
2022-12-12T15:51:33.134Z,58.40
2022-12-12T15:54:02.104Z,59.10
2022-12-12T15:56:30.677Z,60.37
2022-12-12T15:59:15.525Z,54.63
2022-12-12T16:01:43.972Z,52.50
2022-12-12T16:04:26.181Z,54.33
2022-12-12T16:06:54.197Z,61.00
2022-12-12T16:09:24.333Z,61.43
2022-12-12T16:11:53.533Z,63.53
2022-12-12T16:14:43.211Z,58.87
2022-12-12T16:17:14.172Z,55.13
2022-12-12T16:19:47.595Z,58.80
2022-12-12T16:22:21.859Z,61.17
2022-12-12T16:24:52.260Z,67.33
2022-12-12T16:27:20.701Z,52.17
2022-12-12T16:29:49.117Z,56.77
2022-12-12T16:32:18.481Z,63.40
2022-12-12T16:34:47.856Z,60.10
2022-12-12T16:37:18.088Z,65.17
2022-12-12T16:39:46.330Z,61.93
2022-12-12T16:42:15.930Z,60.37
2022-12-12T16:44:44.762Z,61.00
2022-12-12T16:47:17.777Z,53.33
2022-12-12T16:49:47.614Z,57.93
2022-12-12T16:52:16.288Z,64.33
2022-12-12T16:54:51.060Z,59.33
2022-12-12T16:57:20.859Z,65.00
2022-12-12T16:59:48.725Z,59.47
2022-12-12T17:02:20.755Z,63.60
2022-12-12T17:04:50.903Z,58.03
2022-12-12T17:07:19.461Z,62.70
2022-12-12T17:09:47.624Z,63.37
2022-12-12T17:12:15.807Z,61.90
2022-12-12T17:14:44.058Z,60.33
2022-12-12T17:17:11.944Z,62.50
2022-12-12T17:19:39.956Z,64.23
2022-12-12T17:22:09.360Z,58.23
2022-12-12T17:24:37.170Z,71.47
2022-12-12T17:27:05.170Z,61.40
2022-12-12T17:29:32.998Z,64.40
2022-12-12T17:32:01.111Z,60.73
2022-12-12T17:34:29.036Z,76.17
2022-12-12T17:36:56.925Z,66.13
2022-12-12T17:39:26.836Z,59.20
2022-12-12T17:41:54.797Z,70.97
2022-12-12T17:44:24.333Z,69.00
2022-12-12T17:46:53.021Z,58.30
2022-12-12T17:49:21.052Z,67.73
2022-12-12T17:51:48.983Z,72.80
2022-12-12T17:54:17.028Z,62.10
2022-12-12T17:56:46.374Z,71.37
2022-12-12T17:59:14.263Z,73.70
2022-12-12T18:01:42.335Z,71.90
2022-12-12T18:04:10.232Z,71.50
2022-12-12T18:06:38.321Z,65.17
2022-12-12T18:09:06.172Z,74.67
2022-12-12T18:11:35.949Z,64.53
2022-12-12T18:14:07.476Z,64.87
2022-12-12T18:16:36.768Z,80.47
2022-12-12T18:19:05.217Z,54.07
2022-12-12T18:24:24.058Z,72.80
2022-12-12T18:26:53.178Z,66.37
2022-12-12T18:29:22.851Z,68.10
2022-12-12T18:31:50.882Z,62.67
2022-12-12T18:34:19.550Z,62.80
2022-12-12T18:36:49.420Z,74.63
2022-12-12T18:39:17.627Z,74.93
2022-12-12T18:41:45.612Z,76.57
2022-12-12T18:44:15.174Z,76.90
2022-12-12T18:46:44.767Z,70.37
2022-12-12T18:49:15.679Z,68.50
2022-12-12T18:51:44.453Z,80.43
2022-12-12T18:54:15.744Z,79.47
2022-12-12T18:56:45.361Z,80.07
2022-12-12T18:59:13.764Z,77.43
2022-12-12T19:01:41.906Z,78.20
2022-12-12T19:04:15.090Z,67.53
2022-12-12T19:06:45.702Z,62.03
2022-12-12T19:09:15.867Z,71.10
2022-12-12T19:11:44.757Z,64.83
2022-12-12T19:14:14.011Z,60.93
2022-12-12T19:16:41.947Z,55.77
2022-12-12T19:19:12.191Z,62.80
2022-12-12T19:21:40.482Z,66.90
2022-12-12T19:24:12.146Z,64.00
2022-12-12T19:26:42.022Z,78.87
2022-12-12T19:29:13.945Z,73.57
2022-12-12T19:31:42.243Z,65.27
2022-12-12T19:34:13.660Z,56.17
2022-12-12T19:36:41.913Z,50.43
2022-12-12T19:39:11.562Z,67.77
2022-12-12T19:41:39.497Z,65.97
2022-12-12T19:44:08.997Z,64.23
2022-12-12T19:46:37.193Z,57.30
2022-12-12T19:49:08.549Z,60.13
2022-12-12T19:51:39.485Z,61.63
2022-12-12T19:54:09.845Z,62.93
2022-12-12T19:56:40.911Z,59.73
2022-12-12T19:59:09.857Z,55.90
2022-12-12T20:01:38.993Z,66.03
2022-12-12T20:04:09.306Z,76.43
2022-12-12T20:06:42.199Z,73.97
2022-12-12T20:09:10.882Z,64.73
2022-12-12T20:11:40.027Z,76.37
2022-12-12T20:14:08.488Z,81.23
2022-12-12T20:16:36.368Z,71.00
2022-12-12T20:19:04.361Z,85.60
2022-12-12T20:24:24.188Z,80.73
2022-12-12T20:26:52.536Z,76.70
2022-12-12T20:29:21.671Z,91.00
2022-12-12T20:31:49.995Z,77.33
2022-12-12T20:34:21.677Z,86.93
2022-12-12T20:36:50.445Z,73.83
2022-12-12T20:39:22.239Z,81.77
2022-12-12T20:41:51.511Z,73.97
2022-12-12T20:44:19.345Z,83.33
2022-12-12T20:46:48.118Z,75.20
2022-12-12T20:49:18.090Z,70.70
2022-12-12T20:51:55.841Z,70.77
2022-12-12T20:54:28.266Z,62.50
2022-12-12T20:56:56.787Z,83.73
2022-12-12T20:59:24.865Z,75.50
2022-12-12T21:01:52.965Z,81.00
2022-12-12T21:04:21.522Z,90.63
2022-12-12T21:06:49.862Z,90.47
2022-12-12T21:09:23.803Z,78.23
2022-12-12T21:11:54.298Z,75.57
2022-12-12T21:14:22.217Z,85.87
2022-12-12T21:16:50.241Z,86.13
2022-12-12T21:19:19.316Z,80.70
2022-12-12T21:21:47.597Z,90.30
2022-12-12T21:24:19.986Z,80.43
2022-12-12T21:26:49.052Z,81.37
2022-12-12T21:29:18.621Z,74.57
2022-12-12T21:31:51.492Z,63.90
2022-12-12T21:34:22.207Z,65.23
2022-12-12T21:36:52.515Z,47.23
2022-12-12T21:39:22.056Z,62.13
2022-12-12T21:41:51.419Z,71.03
2022-12-12T21:44:21.516Z,64.43
2022-12-12T21:46:49.650Z,60.87
2022-12-12T21:49:26.557Z,63.23
2022-12-12T21:51:56.099Z,70.57
2022-12-12T21:54:24.958Z,71.40
2022-12-12T21:56:53.399Z,81.40
2022-12-12T21:59:22.971Z,72.83
2022-12-12T22:01:50.840Z,62.93
2022-12-12T22:04:19.093Z,76.97
2022-12-12T22:06:47.318Z,70.63
2022-12-12T22:09:15.455Z,72.73
2022-12-12T22:11:49.042Z,57.03
2022-12-12T22:14:22.625Z,79.83
2022-12-12T22:16:51.110Z,67.33
2022-12-12T22:19:19.741Z,65.53
2022-12-12T22:21:49.024Z,71.27
2022-12-12T22:24:18.146Z,73.43
2022-12-12T22:26:47.929Z,68.97
2022-12-12T22:29:17.646Z,63.53
2022-12-12T22:31:49.925Z,55.17
2022-12-12T22:34:20.065Z,77.00
2022-12-12T22:36:49.563Z,58.03
2022-12-12T22:39:20.068Z,72.97
2022-12-12T22:41:48.219Z,87.60
2022-12-12T22:44:17.750Z,75.50
2022-12-12T22:46:49.033Z,76.60
2022-12-12T22:49:19.404Z,50.27
2022-12-12T22:51:48.817Z,80.27
2022-12-12T22:54:17.023Z,86.90
2022-12-12T22:56:45.242Z,71.10
2022-12-12T22:59:14.064Z,64.47
2022-12-12T23:01:42.159Z,67.47
2022-12-12T23:04:13.954Z,72.67
2022-12-12T23:06:43.368Z,70.57
2022-12-12T23:09:15.400Z,68.90
2022-12-12T23:11:43.972Z,56.17
2022-12-12T23:14:14.874Z,68.13
2022-12-12T23:16:43.495Z,68.30
2022-12-12T23:19:15.354Z,70.93
2022-12-12T23:21:43.402Z,72.27
2022-12-12T23:24:11.880Z,67.87
2022-12-12T23:26:40.063Z,71.60
2022-12-12T23:29:09.528Z,77.60
2022-12-12T23:31:39.050Z,63.03
2022-12-12T23:34:09.286Z,60.00
2022-12-12T23:36:39.111Z,65.57
2022-12-12T23:39:08.877Z,68.47
2022-12-12T23:41:37.123Z,70.67
2022-12-12T23:44:05.567Z,72.53
2022-12-12T23:46:34.299Z,56.43
2022-12-12T23:49:05.728Z,54.67
2022-12-12T23:51:35.930Z,65.80
2022-12-12T23:54:07.190Z,72.67
2022-12-12T23:56:35.595Z,68.03
2022-12-12T23:59:03.398Z,88.37
